createdAt,value
2022-11-24T00:00:10.028Z,986.30
2022-11-24T00:01:10.011Z,986.26
2022-11-24T00:02:10.131Z,986.27
2022-11-24T00:03:10.144Z,986.32
2022-11-24T00:04:09.971Z,986.24
2022-11-24T00:05:10.109Z,986.31
2022-11-24T00:06:09.981Z,986.22
2022-11-24T00:07:10.008Z,986.28
2022-11-24T00:08:09.918Z,986.26
2022-11-24T00:09:09.906Z,986.37
2022-11-24T00:10:09.895Z,986.20
2022-11-24T00:11:09.884Z,986.24
2022-11-24T00:12:09.866Z,986.25
2022-11-24T00:13:09.853Z,986.26
2022-11-24T00:14:09.842Z,986.28
2022-11-24T00:15:09.837Z,986.29
2022-11-24T00:16:10.014Z,986.30
2022-11-24T00:17:09.843Z,986.34
2022-11-24T00:18:09.792Z,986.33
2022-11-24T00:20:09.764Z,986.36
2022-11-24T00:21:09.756Z,986.41
2022-11-24T00:22:09.761Z,986.32
2022-11-24T00:23:09.728Z,986.43
2022-11-24T00:24:09.719Z,986.44
2022-11-24T00:25:09.723Z,986.42
2022-11-24T00:26:09.690Z,986.46
2022-11-24T00:27:09.674Z,986.50
2022-11-24T00:28:09.661Z,986.51
2022-11-24T00:29:09.653Z,986.60
2022-11-24T00:30:09.648Z,986.58
2022-11-24T00:31:13.907Z,986.61
2022-11-24T00:32:09.607Z,986.57
2022-11-24T00:33:09.596Z,986.62
2022-11-24T00:34:09.584Z,986.52
2022-11-24T00:35:09.574Z,986.54
2022-11-24T00:36:09.556Z,986.59
2022-11-24T00:37:09.546Z,986.57
2022-11-24T00:38:09.555Z,986.55
2022-11-24T00:39:09.523Z,986.55
2022-11-24T00:40:09.505Z,986.57
2022-11-24T00:41:09.498Z,986.56
2022-11-24T00:42:09.479Z,986.57
2022-11-24T00:43:09.473Z,986.60
2022-11-24T00:44:09.458Z,986.59
2022-11-24T00:45:13.823Z,986.63
2022-11-24T00:46:09.657Z,986.60
2022-11-24T00:47:09.657Z,986.58
2022-11-24T00:48:09.401Z,986.59
2022-11-24T00:49:09.391Z,986.65
2022-11-24T00:50:09.375Z,986.65
2022-11-24T00:51:09.367Z,986.63
2022-11-24T00:52:09.352Z,986.60
2022-11-24T00:53:09.343Z,986.57
2022-11-24T00:54:09.365Z,986.50
2022-11-24T00:55:09.360Z,986.52
2022-11-24T00:56:09.298Z,986.53
2022-11-24T00:57:09.291Z,986.60
2022-11-24T00:58:09.278Z,986.52
2022-11-24T00:59:09.310Z,986.53
2022-11-24T01:00:09.273Z,986.59
2022-11-24T01:01:09.344Z,986.59
2022-11-24T01:02:09.322Z,986.73
2022-11-24T01:03:09.216Z,986.70
2022-11-24T01:04:09.194Z,986.72
2022-11-24T01:05:09.188Z,986.70
2022-11-24T01:06:09.171Z,986.75
2022-11-24T01:07:09.234Z,986.80
2022-11-24T01:08:09.143Z,986.85
2022-11-24T01:09:09.131Z,986.90
2022-11-24T01:10:09.143Z,986.89
2022-11-24T01:11:09.107Z,986.93
2022-11-24T01:12:09.101Z,987.00
2022-11-24T01:13:09.081Z,986.95
2022-11-24T01:14:09.067Z,987.03
2022-11-24T01:15:09.054Z,986.99
2022-11-24T01:16:09.130Z,987.09
2022-11-24T01:17:09.030Z,987.06
2022-11-24T01:18:09.015Z,987.08
2022-11-24T01:19:09.006Z,987.11
2022-11-24T01:21:10.430Z,987.12
2022-11-24T01:22:08.967Z,987.14
2022-11-24T01:23:08.953Z,987.14
2022-11-24T01:24:08.941Z,987.13
2022-11-24T01:25:08.930Z,987.11
2022-11-24T01:26:08.946Z,987.14
2022-11-24T01:27:08.904Z,987.07
2022-11-24T01:28:08.890Z,987.14
2022-11-24T01:29:08.877Z,987.09
2022-11-24T01:30:08.864Z,987.10
2022-11-24T01:31:08.897Z,987.10
2022-11-24T01:32:08.840Z,987.07
2022-11-24T01:33:08.827Z,987.05
2022-11-24T01:34:08.813Z,987.08
2022-11-24T01:35:08.800Z,987.09
2022-11-24T01:36:08.795Z,987.08
2022-11-24T01:37:08.775Z,987.07
2022-11-24T01:38:08.761Z,987.03
2022-11-24T01:39:08.749Z,987.10
2022-11-24T01:40:08.733Z,987.13
2022-11-24T01:41:08.723Z,987.14
2022-11-24T01:42:08.734Z,987.19
2022-11-24T01:43:08.697Z,987.19
2022-11-24T01:44:08.683Z,987.19
2022-11-24T01:45:08.676Z,987.20
2022-11-24T01:46:08.712Z,987.23
2022-11-24T01:47:08.646Z,987.24
2022-11-24T01:48:08.633Z,987.27
2022-11-24T01:49:08.621Z,987.19
2022-11-24T01:50:08.609Z,987.26
2022-11-24T01:51:08.595Z,987.17
2022-11-24T01:52:08.580Z,987.19
2022-11-24T01:53:08.568Z,987.26
2022-11-24T01:54:08.555Z,987.20
2022-11-24T01:55:08.545Z,987.16
2022-11-24T01:56:08.528Z,987.21
2022-11-24T01:57:08.517Z,987.27
2022-11-24T01:58:08.527Z,987.28
2022-11-24T01:59:08.495Z,987.31
2022-11-24T02:00:08.476Z,987.30
2022-11-24T02:01:08.508Z,987.37
2022-11-24T02:02:08.545Z,987.36
2022-11-24T02:03:08.441Z,987.35
2022-11-24T02:04:08.427Z,987.35
2022-11-24T02:05:08.414Z,987.34
2022-11-24T02:06:08.400Z,987.35
2022-11-24T02:07:08.483Z,987.35
2022-11-24T02:08:08.373Z,987.33
2022-11-24T02:09:08.362Z,987.36
2022-11-24T02:10:08.348Z,987.37
2022-11-24T02:11:08.336Z,987.37
2022-11-24T02:12:08.321Z,987.37
2022-11-24T02:13:08.314Z,987.37
2022-11-24T02:14:08.322Z,987.33
2022-11-24T02:15:08.284Z,987.27
2022-11-24T02:16:08.319Z,987.27
2022-11-24T02:17:08.260Z,987.32
2022-11-24T02:18:08.244Z,987.30
2022-11-24T02:19:08.233Z,987.28
2022-11-24T02:20:08.219Z,987.25
2022-11-24T02:22:08.191Z,987.24
2022-11-24T02:23:08.180Z,987.25
2022-11-24T02:24:08.169Z,987.28
2022-11-24T02:25:08.154Z,987.23
2022-11-24T02:26:08.142Z,987.22
2022-11-24T02:27:08.128Z,987.23
2022-11-24T02:28:08.114Z,987.21
2022-11-24T02:29:08.103Z,987.25
2022-11-24T02:30:08.116Z,987.25
2022-11-24T02:31:08.169Z,987.38
2022-11-24T02:32:08.063Z,987.41
2022-11-24T02:33:08.050Z,987.38
2022-11-24T02:34:08.036Z,987.40
2022-11-24T02:35:08.031Z,987.38
2022-11-24T02:36:08.014Z,987.48
2022-11-24T02:37:07.999Z,987.43
2022-11-24T02:38:07.986Z,987.45
2022-11-24T02:39:07.974Z,987.42
2022-11-24T02:40:07.972Z,987.39
2022-11-24T02:41:07.948Z,987.36
2022-11-24T02:42:07.934Z,987.38
2022-11-24T02:43:07.936Z,987.40
2022-11-24T02:44:07.908Z,987.39
2022-11-24T02:45:07.897Z,987.35
2022-11-24T02:46:07.938Z,987.43
2022-11-24T02:47:07.871Z,987.42
2022-11-24T02:48:07.862Z,987.49
2022-11-24T02:49:07.847Z,987.42
2022-11-24T02:50:07.830Z,987.47
2022-11-24T02:51:07.819Z,987.43
2022-11-24T02:52:07.807Z,987.58
2022-11-24T02:53:07.793Z,987.48
2022-11-24T02:54:07.784Z,987.44
2022-11-24T02:55:07.767Z,987.43
2022-11-24T02:56:07.752Z,987.47
2022-11-24T02:57:07.744Z,987.55
2022-11-24T02:58:07.726Z,987.53
2022-11-24T02:59:07.715Z,987.47
2022-11-24T03:00:07.708Z,987.52
2022-11-24T03:01:07.744Z,987.56
2022-11-24T03:02:07.701Z,987.53
2022-11-24T03:03:07.750Z,987.53
2022-11-24T03:04:07.648Z,987.58
2022-11-24T03:05:07.640Z,987.56
2022-11-24T03:06:07.626Z,987.61
2022-11-24T03:07:07.655Z,987.58
2022-11-24T03:08:07.598Z,987.60
2022-11-24T03:09:07.585Z,987.60
2022-11-24T03:10:07.573Z,987.58
2022-11-24T03:11:07.560Z,987.66
2022-11-24T03:12:07.546Z,987.60
2022-11-24T03:13:07.536Z,987.61
2022-11-24T03:14:07.521Z,987.58
2022-11-24T03:15:07.512Z,987.58
2022-11-24T03:16:07.533Z,987.59
2022-11-24T03:17:07.483Z,987.62
2022-11-24T03:18:07.495Z,987.53
2022-11-24T03:19:07.457Z,987.58
2022-11-24T03:20:07.444Z,987.58
2022-11-24T03:21:07.431Z,987.56
2022-11-24T03:23:07.409Z,987.59
2022-11-24T03:24:07.389Z,987.49
2022-11-24T03:25:07.380Z,987.56
2022-11-24T03:26:07.368Z,987.55
2022-11-24T03:27:07.354Z,987.61
2022-11-24T03:28:07.340Z,987.54
2022-11-24T03:29:07.328Z,987.55
2022-11-24T03:30:07.313Z,987.62
2022-11-24T03:31:07.398Z,987.61
2022-11-24T03:32:07.287Z,987.60
2022-11-24T03:33:07.356Z,987.62
2022-11-24T03:34:07.288Z,987.59
2022-11-24T03:35:07.250Z,987.62
2022-11-24T03:36:07.235Z,987.70
2022-11-24T03:37:07.224Z,987.67
2022-11-24T03:38:07.209Z,987.67
2022-11-24T03:39:07.199Z,987.69
2022-11-24T03:40:07.185Z,987.68
2022-11-24T03:41:07.175Z,987.64
2022-11-24T03:42:07.160Z,987.64
2022-11-24T03:43:07.149Z,987.65
2022-11-24T03:44:07.132Z,987.62
2022-11-24T03:46:07.178Z,987.63
2022-11-24T03:47:07.097Z,987.65
2022-11-24T03:48:07.084Z,987.68
2022-11-24T03:49:07.068Z,987.63
2022-11-24T03:50:07.086Z,987.63
2022-11-24T03:51:07.042Z,987.68
2022-11-24T03:52:08.328Z,987.67
2022-11-24T03:53:07.017Z,987.67
2022-11-24T03:54:07.004Z,987.71
2022-11-24T03:55:06.991Z,987.83
2022-11-24T03:56:06.981Z,987.87
2022-11-24T03:57:06.967Z,987.85
2022-11-24T03:58:06.955Z,987.82
2022-11-24T03:59:06.942Z,987.78
2022-11-24T04:00:06.941Z,987.86
2022-11-24T04:01:06.916Z,987.84
2022-11-24T04:02:06.933Z,987.87
2022-11-24T04:03:07.015Z,987.80
2022-11-24T04:04:06.876Z,987.80
2022-11-24T04:05:06.863Z,987.83
2022-11-24T04:06:06.877Z,987.80
2022-11-24T04:07:06.914Z,987.84
2022-11-24T04:08:06.826Z,987.88
2022-11-24T04:09:06.813Z,987.85
2022-11-24T04:10:06.805Z,987.82
2022-11-24T04:11:06.786Z,987.84
2022-11-24T04:12:06.775Z,987.96
2022-11-24T04:13:06.761Z,987.89
2022-11-24T04:14:13.234Z,987.95
2022-11-24T04:15:06.736Z,987.90
2022-11-24T04:16:06.812Z,987.90
2022-11-24T04:17:06.711Z,987.93
2022-11-24T04:18:06.698Z,987.95
2022-11-24T04:19:06.686Z,987.91
2022-11-24T04:20:06.680Z,987.95
2022-11-24T04:21:06.659Z,987.99
2022-11-24T04:22:06.671Z,987.91
2022-11-24T04:24:06.624Z,987.93
2022-11-24T04:25:06.608Z,987.93
2022-11-24T04:26:06.600Z,987.90
2022-11-24T04:27:06.588Z,987.89
2022-11-24T04:28:06.573Z,987.90
2022-11-24T04:29:06.560Z,987.88
2022-11-24T04:30:06.552Z,987.89
2022-11-24T04:31:06.579Z,987.89
2022-11-24T04:32:06.524Z,987.91
2022-11-24T04:33:06.509Z,987.91
2022-11-24T04:34:06.501Z,987.93
2022-11-24T04:35:06.485Z,987.98
2022-11-24T04:36:06.474Z,987.95
2022-11-24T04:37:06.474Z,988.01
2022-11-24T04:38:06.476Z,988.04
2022-11-24T04:39:24.421Z,988.06
2022-11-24T04:40:08.422Z,988.10
2022-11-24T04:41:06.407Z,988.12
2022-11-24T04:42:06.408Z,988.10
2022-11-24T04:43:06.393Z,988.08
2022-11-24T04:44:06.372Z,988.13
2022-11-24T04:45:06.357Z,988.09
2022-11-24T04:46:06.434Z,988.12
2022-11-24T04:47:06.330Z,988.08
2022-11-24T04:48:06.319Z,988.14
2022-11-24T04:49:06.304Z,988.10
2022-11-24T04:50:06.294Z,988.13
2022-11-24T04:51:06.284Z,988.15
2022-11-24T04:52:06.267Z,988.14
2022-11-24T04:53:06.256Z,988.15
2022-11-24T04:54:06.268Z,988.12
2022-11-24T04:55:06.230Z,988.17
2022-11-24T04:56:06.225Z,988.19
2022-11-24T04:57:06.206Z,988.20
2022-11-24T04:58:06.194Z,988.20
2022-11-24T04:59:08.461Z,988.16
2022-11-24T05:00:06.171Z,988.22
2022-11-24T05:01:06.176Z,988.22
2022-11-24T05:02:06.203Z,988.18
2022-11-24T05:03:06.129Z,988.22
2022-11-24T05:04:06.177Z,988.26
2022-11-24T05:05:06.106Z,988.28
2022-11-24T05:06:06.091Z,988.31
2022-11-24T05:07:06.107Z,988.32
2022-11-24T05:08:06.070Z,988.38
2022-11-24T05:09:06.052Z,988.37
2022-11-24T05:10:06.114Z,988.41
2022-11-24T05:11:06.025Z,988.36
2022-11-24T05:12:06.016Z,988.40
2022-11-24T05:13:05.999Z,988.44
2022-11-24T05:14:05.994Z,988.44
2022-11-24T05:15:05.977Z,988.45
2022-11-24T05:16:06.025Z,988.47
2022-11-24T05:17:05.953Z,988.53
2022-11-24T05:18:05.941Z,988.54
2022-11-24T05:19:05.926Z,988.52
2022-11-24T05:20:05.918Z,988.53
2022-11-24T05:21:05.901Z,988.61
2022-11-24T05:22:05.892Z,988.59
2022-11-24T05:23:05.876Z,988.61
2022-11-24T05:25:05.854Z,988.62
2022-11-24T05:26:05.863Z,988.64
2022-11-24T05:27:05.826Z,988.64
2022-11-24T05:28:05.815Z,988.65
2022-11-24T05:29:05.801Z,988.60
2022-11-24T05:30:05.790Z,988.64
2022-11-24T05:31:05.849Z,988.64
2022-11-24T05:32:05.763Z,988.67
2022-11-24T05:33:05.748Z,988.68
2022-11-24T05:34:05.738Z,988.68
2022-11-24T05:35:05.725Z,988.65
2022-11-24T05:36:05.712Z,988.66
2022-11-24T05:37:05.700Z,988.60
2022-11-24T05:38:05.710Z,988.62
2022-11-24T05:39:05.672Z,988.69
2022-11-24T05:40:05.660Z,988.64
2022-11-24T05:41:05.647Z,988.67
2022-11-24T05:42:05.663Z,988.68
2022-11-24T05:43:05.621Z,988.67
2022-11-24T05:44:05.610Z,988.66
2022-11-24T05:45:05.597Z,988.66
2022-11-24T05:46:05.588Z,988.67
2022-11-24T05:47:05.674Z,988.69
2022-11-24T05:48:05.563Z,988.72
2022-11-24T05:49:05.546Z,988.66
2022-11-24T05:50:05.535Z,988.71
2022-11-24T05:51:09.286Z,988.76
2022-11-24T05:52:05.510Z,988.71
2022-11-24T05:53:05.496Z,988.72
2022-11-24T05:54:05.486Z,988.74
2022-11-24T05:55:05.472Z,988.72
2022-11-24T05:56:05.459Z,988.77
2022-11-24T05:57:05.444Z,988.68
2022-11-24T05:58:05.464Z,988.76
2022-11-24T05:59:09.662Z,988.73
2022-11-24T06:00:05.411Z,988.80
2022-11-24T06:01:05.395Z,988.74
2022-11-24T06:02:05.522Z,988.79
2022-11-24T06:03:05.530Z,988.79
2022-11-24T06:04:05.359Z,988.83
2022-11-24T06:05:05.353Z,988.76
2022-11-24T06:06:05.334Z,988.85
2022-11-24T06:07:05.320Z,988.83
2022-11-24T06:08:05.314Z,988.83
2022-11-24T06:09:05.297Z,988.85
2022-11-24T06:10:05.283Z,988.81
2022-11-24T06:11:05.270Z,988.86
2022-11-24T06:12:05.263Z,988.84
2022-11-24T06:13:05.303Z,988.85
2022-11-24T06:14:09.775Z,988.89
2022-11-24T06:15:07.221Z,988.91
2022-11-24T06:16:05.260Z,988.93
2022-11-24T06:17:05.195Z,988.93
2022-11-24T06:18:05.184Z,988.94
2022-11-24T06:19:05.172Z,988.94
2022-11-24T06:20:05.160Z,988.97
2022-11-24T06:21:12.057Z,989.00
2022-11-24T06:22:07.134Z,989.04
2022-11-24T06:23:05.120Z,989.02
2022-11-24T06:24:05.109Z,989.02
2022-11-24T06:26:05.084Z,989.03
2022-11-24T06:27:05.073Z,989.05
2022-11-24T06:28:05.061Z,989.04
2022-11-24T06:29:05.046Z,988.99
2022-11-24T06:30:05.064Z,988.97
2022-11-24T06:31:05.021Z,988.98
2022-11-24T06:32:05.038Z,988.99
2022-11-24T06:33:04.996Z,989.02
2022-11-24T06:34:04.985Z,989.04
2022-11-24T06:35:04.970Z,989.00
2022-11-24T06:36:04.960Z,988.96
2022-11-24T06:37:04.945Z,989.03
2022-11-24T06:38:04.935Z,989.00
2022-11-24T06:40:04.909Z,989.07
2022-11-24T06:41:04.896Z,989.04
2022-11-24T06:42:04.885Z,989.03
2022-11-24T06:43:04.868Z,989.05
2022-11-24T06:44:04.858Z,989.08
2022-11-24T06:45:08.764Z,989.05
2022-11-24T06:46:04.949Z,988.99
2022-11-24T06:47:04.817Z,989.02
2022-11-24T06:48:04.807Z,989.05
2022-11-24T06:49:04.794Z,989.11
2022-11-24T06:50:04.782Z,989.07
2022-11-24T06:51:04.771Z,989.12
2022-11-24T06:52:04.756Z,989.10
2022-11-24T06:53:04.743Z,989.14
2022-11-24T06:54:04.733Z,989.14
2022-11-24T06:55:04.718Z,989.13
2022-11-24T06:56:04.707Z,989.15
2022-11-24T06:57:04.694Z,989.11
2022-11-24T06:58:04.682Z,989.18
2022-11-24T06:59:04.668Z,989.18
2022-11-24T07:00:04.656Z,989.16
2022-11-24T07:01:04.677Z,989.07
2022-11-24T07:02:04.658Z,989.13
2022-11-24T07:03:04.703Z,989.16
2022-11-24T07:04:04.607Z,989.11
2022-11-24T07:05:04.591Z,989.13
2022-11-24T07:06:04.581Z,989.21
2022-11-24T07:07:04.566Z,989.21
2022-11-24T07:08:04.555Z,989.19
2022-11-24T07:09:04.543Z,989.22
2022-11-24T07:10:04.532Z,989.17
2022-11-24T07:11:04.517Z,989.22
2022-11-24T07:12:04.508Z,989.17
2022-11-24T07:13:04.495Z,989.19
2022-11-24T07:14:04.482Z,989.18
2022-11-24T07:15:04.466Z,989.24
2022-11-24T07:16:04.480Z,989.17
2022-11-24T07:17:04.440Z,989.25
2022-11-24T07:18:04.458Z,989.22
2022-11-24T07:19:04.415Z,989.27
2022-11-24T07:20:04.404Z,989.32
2022-11-24T07:21:04.391Z,989.34
2022-11-24T07:22:04.380Z,989.25
2022-11-24T07:23:04.364Z,989.26
2022-11-24T07:24:04.352Z,989.33
2022-11-24T07:25:04.339Z,989.27
2022-11-24T07:27:04.312Z,989.28
2022-11-24T07:28:04.303Z,989.28
2022-11-24T07:29:04.288Z,989.31
2022-11-24T07:30:04.282Z,989.29
2022-11-24T07:31:04.262Z,989.36
2022-11-24T07:32:05.825Z,989.39
2022-11-24T07:33:04.236Z,989.45
2022-11-24T07:34:04.248Z,989.43
2022-11-24T07:35:04.217Z,989.45
2022-11-24T07:36:04.201Z,989.53
2022-11-24T07:37:04.197Z,989.54
2022-11-24T07:38:04.173Z,989.52
2022-11-24T07:39:04.159Z,989.56
2022-11-24T07:40:04.147Z,989.55
2022-11-24T07:41:04.133Z,989.65
2022-11-24T07:42:04.121Z,989.64
2022-11-24T07:43:04.106Z,989.72
2022-11-24T07:44:04.095Z,989.65
2022-11-24T07:45:04.079Z,989.74
2022-11-24T07:46:04.118Z,989.74
2022-11-24T07:47:04.054Z,989.85
2022-11-24T07:48:04.044Z,989.79
2022-11-24T07:49:04.029Z,989.85
2022-11-24T07:50:04.047Z,989.87
2022-11-24T07:51:04.003Z,989.93
2022-11-24T07:52:03.991Z,989.88
2022-11-24T07:53:03.985Z,989.98
2022-11-24T07:54:03.965Z,989.97
2022-11-24T07:55:03.951Z,989.92
2022-11-24T07:56:03.940Z,989.91
2022-11-24T07:57:03.927Z,989.93
2022-11-24T07:58:03.911Z,989.96
2022-11-24T07:59:03.897Z,989.95
2022-11-24T08:00:03.885Z,989.94
2022-11-24T08:01:03.868Z,989.93
2022-11-24T08:02:03.887Z,989.96
2022-11-24T08:03:03.844Z,990.02
2022-11-24T08:04:03.867Z,990.03
2022-11-24T08:05:03.816Z,990.03
2022-11-24T08:07:05.791Z,990.06
2022-11-24T08:08:03.775Z,990.04
2022-11-24T08:09:03.765Z,990.05
2022-11-24T08:10:03.773Z,990.05
2022-11-24T08:11:03.739Z,990.08
2022-11-24T08:12:03.724Z,990.05
2022-11-24T08:13:03.710Z,989.99
2022-11-24T08:14:03.696Z,990.06
2022-11-24T08:15:09.504Z,990.16
2022-11-24T08:16:03.670Z,990.05
2022-11-24T08:17:03.788Z,990.04
2022-11-24T08:18:03.643Z,990.18
2022-11-24T08:19:03.633Z,990.16
2022-11-24T08:20:03.618Z,990.10
2022-11-24T08:21:03.605Z,990.09
2022-11-24T08:22:03.615Z,990.10
2022-11-24T08:23:03.580Z,990.06
2022-11-24T08:24:03.566Z,990.11
2022-11-24T08:25:03.555Z,990.16
2022-11-24T08:26:03.540Z,990.16
2022-11-24T08:28:03.532Z,990.11
2022-11-24T08:29:03.508Z,990.06
2022-11-24T08:30:03.487Z,989.99
2022-11-24T08:31:03.477Z,990.03
2022-11-24T08:32:03.526Z,989.95
2022-11-24T08:33:03.450Z,990.05
2022-11-24T08:34:03.435Z,990.07
2022-11-24T08:35:18.407Z,990.16
2022-11-24T08:36:05.413Z,990.19
2022-11-24T08:37:03.403Z,990.20
2022-11-24T08:38:04.895Z,990.23
2022-11-24T08:39:03.373Z,990.30
2022-11-24T08:40:03.361Z,990.30
2022-11-24T08:41:03.347Z,990.34
2022-11-24T08:42:03.331Z,990.31
2022-11-24T08:43:03.320Z,990.36
2022-11-24T08:44:03.306Z,990.35
2022-11-24T08:45:19.303Z,990.37
2022-11-24T08:46:03.345Z,990.43
2022-11-24T08:47:03.272Z,990.47
2022-11-24T08:48:03.264Z,990.47
2022-11-24T08:49:03.247Z,990.59
2022-11-24T08:50:03.226Z,990.55
2022-11-24T08:51:03.217Z,990.57
2022-11-24T08:52:03.203Z,990.57
2022-11-24T08:53:03.194Z,990.58
2022-11-24T08:54:03.203Z,990.62
2022-11-24T08:55:03.165Z,990.62
2022-11-24T08:56:03.153Z,990.58
2022-11-24T08:57:03.140Z,990.63
2022-11-24T08:58:03.126Z,990.61
2022-11-24T08:59:03.200Z,990.63
2022-11-24T09:00:03.099Z,990.63
2022-11-24T09:01:03.132Z,990.71
2022-11-24T09:02:03.195Z,990.71
2022-11-24T09:03:03.069Z,990.71
2022-11-24T09:04:03.095Z,990.70
2022-11-24T09:05:03.035Z,990.71
2022-11-24T09:06:03.033Z,990.73
2022-11-24T09:07:03.012Z,990.74
2022-11-24T09:08:02.997Z,990.72
2022-11-24T09:09:02.987Z,990.82
2022-11-24T09:10:02.992Z,990.79
2022-11-24T09:11:02.960Z,990.75
2022-11-24T09:12:02.943Z,990.84
2022-11-24T09:13:02.935Z,990.81
2022-11-24T09:14:02.921Z,990.85
2022-11-24T09:15:02.910Z,990.89
2022-11-24T09:16:02.899Z,990.86
2022-11-24T09:17:02.947Z,990.91
2022-11-24T09:18:02.867Z,990.94
2022-11-24T09:19:02.856Z,990.90
2022-11-24T09:20:02.842Z,990.93
2022-11-24T09:21:02.831Z,990.98
2022-11-24T09:22:02.815Z,990.98
2022-11-24T09:23:02.809Z,990.99
2022-11-24T09:24:02.787Z,991.08
2022-11-24T09:25:02.783Z,991.03
2022-11-24T09:26:02.787Z,991.05
2022-11-24T09:27:02.751Z,991.03
2022-11-24T09:29:02.727Z,991.09
2022-11-24T09:30:02.710Z,991.06
2022-11-24T09:31:02.787Z,991.08
2022-11-24T09:32:06.751Z,991.09
2022-11-24T09:33:02.672Z,991.07
2022-11-24T09:34:02.660Z,991.11
2022-11-24T09:35:02.649Z,991.22
2022-11-24T09:36:02.632Z,991.15
2022-11-24T09:37:02.619Z,991.10
2022-11-24T09:38:02.608Z,991.09
2022-11-24T09:39:02.595Z,991.11
2022-11-24T09:40:02.580Z,991.10
2022-11-24T09:41:02.577Z,991.12
2022-11-24T09:42:02.576Z,991.10
2022-11-24T09:43:02.543Z,991.13
2022-11-24T09:44:02.528Z,991.11
2022-11-24T09:45:02.519Z,991.14
2022-11-24T09:46:06.485Z,991.21
2022-11-24T09:47:02.530Z,991.23
2022-11-24T09:48:02.475Z,991.12
2022-11-24T09:49:02.466Z,991.17
2022-11-24T09:50:02.450Z,991.20
2022-11-24T09:51:02.441Z,991.14
2022-11-24T09:52:02.425Z,991.16
2022-11-24T09:53:02.413Z,991.14
2022-11-24T09:54:02.400Z,991.14
2022-11-24T09:55:02.400Z,991.16
2022-11-24T09:56:02.373Z,991.26
2022-11-24T09:57:02.363Z,991.15
2022-11-24T09:58:02.377Z,991.21
2022-11-24T09:59:02.338Z,991.16
2022-11-24T10:00:02.321Z,991.17
2022-11-24T10:01:02.370Z,991.22
2022-11-24T10:02:02.507Z,991.26
2022-11-24T10:03:02.284Z,991.16
2022-11-24T10:04:06.377Z,991.17
2022-11-24T10:05:02.334Z,991.21
2022-11-24T10:06:02.245Z,991.11
2022-11-24T10:07:02.241Z,991.38
2022-11-24T10:08:02.240Z,991.23
2022-11-24T10:09:02.209Z,991.25
2022-11-24T10:10:02.192Z,991.17
2022-11-24T10:11:02.182Z,991.20
2022-11-24T10:12:02.171Z,991.25
2022-11-24T10:13:02.157Z,991.22
2022-11-24T10:14:02.166Z,991.32
2022-11-24T10:16:02.189Z,991.08
2022-11-24T10:17:02.120Z,991.37
2022-11-24T10:18:02.093Z,991.10
2022-11-24T10:19:02.082Z,991.40
2022-11-24T10:20:02.066Z,991.24
2022-11-24T10:21:02.055Z,991.19
2022-11-24T10:22:02.041Z,991.20
2022-11-24T10:23:02.033Z,991.31
2022-11-24T10:24:02.017Z,991.30
2022-11-24T10:25:02.007Z,991.38
2022-11-24T10:26:01.991Z,991.39
2022-11-24T10:27:01.990Z,991.38
2022-11-24T10:28:01.977Z,991.37
2022-11-24T10:30:01.973Z,991.41
2022-11-24T10:31:02.009Z,991.38
2022-11-24T10:32:01.918Z,991.28
2022-11-24T10:33:01.906Z,991.43
2022-11-24T10:35:01.883Z,991.43
2022-11-24T10:36:01.869Z,991.41
2022-11-24T10:37:01.859Z,991.45
2022-11-24T10:38:01.843Z,991.45
2022-11-24T10:39:01.832Z,991.40
2022-11-24T10:40:01.819Z,991.43
2022-11-24T10:41:01.808Z,991.39
2022-11-24T10:42:01.794Z,991.32
2022-11-24T10:43:01.783Z,991.34
2022-11-24T10:44:01.771Z,991.35
2022-11-24T10:45:01.758Z,991.20
2022-11-24T10:46:01.867Z,991.29
2022-11-24T10:47:01.733Z,991.30
2022-11-24T10:48:01.720Z,991.30
2022-11-24T10:49:01.713Z,991.24
2022-11-24T10:50:01.701Z,991.04
2022-11-24T10:51:01.687Z,991.20
2022-11-24T10:52:01.684Z,991.03
2022-11-24T10:53:01.659Z,991.09
2022-11-24T10:54:01.644Z,991.07
2022-11-24T10:55:01.634Z,991.12
2022-11-24T10:56:01.630Z,991.42
2022-11-24T10:57:01.609Z,991.43
2022-11-24T10:58:01.596Z,991.14
2022-11-24T10:59:01.583Z,991.22
2022-11-24T11:00:01.570Z,991.25
2022-11-24T11:01:01.656Z,991.34
2022-11-24T11:02:01.676Z,991.31
2022-11-24T11:03:01.589Z,991.41
2022-11-24T11:04:01.556Z,991.35
2022-11-24T11:05:01.505Z,991.42
2022-11-24T11:06:01.491Z,991.42
2022-11-24T11:07:01.482Z,991.38
2022-11-24T11:08:05.457Z,991.40
2022-11-24T11:09:01.455Z,991.46
2022-11-24T11:10:01.440Z,991.43
2022-11-24T11:11:01.429Z,991.47
2022-11-24T11:12:10.023Z,991.45
2022-11-24T11:13:03.413Z,991.52
2022-11-24T11:14:04.332Z,991.48
2022-11-24T11:15:01.377Z,991.43
2022-11-24T11:16:01.419Z,991.50
2022-11-24T11:17:01.350Z,991.48
2022-11-24T11:18:01.541Z,991.50
2022-11-24T11:19:01.324Z,991.49
2022-11-24T11:20:02.612Z,991.56
2022-11-24T11:21:01.298Z,991.57
2022-11-24T11:22:01.284Z,991.60
2022-11-24T11:23:01.273Z,991.59
2022-11-24T11:24:01.262Z,991.66
2022-11-24T11:25:01.248Z,991.63
2022-11-24T11:26:01.244Z,991.62
2022-11-24T11:27:01.219Z,991.72
2022-11-24T11:28:07.185Z,991.71
2022-11-24T11:31:19.271Z,991.74
2022-11-24T11:34:03.314Z,991.78
2022-11-24T11:35:01.120Z,991.87
2022-11-24T11:36:01.109Z,991.79
2022-11-24T11:37:01.090Z,991.82
2022-11-24T11:38:01.075Z,991.82
2022-11-24T11:39:01.068Z,991.82
2022-11-24T11:40:01.050Z,991.89
2022-11-24T11:41:01.039Z,991.80
2022-11-24T11:42:01.025Z,991.84
2022-11-24T11:43:02.738Z,991.86
2022-11-24T11:44:01.001Z,991.84
2022-11-24T11:45:00.986Z,991.83
2022-11-24T11:46:01.185Z,991.85
2022-11-24T11:47:01.012Z,991.86
2022-11-24T11:48:00.947Z,991.88
2022-11-24T11:49:00.935Z,991.85
2022-11-24T11:50:00.948Z,991.89
2022-11-24T11:51:22.262Z,991.92
2022-11-24T11:52:02.894Z,991.92
2022-11-24T11:53:00.883Z,991.88
2022-11-24T11:54:00.924Z,991.94
2022-11-24T11:55:00.858Z,991.90
2022-11-24T11:56:00.842Z,991.98
2022-11-24T11:57:00.832Z,991.94
2022-11-24T11:58:00.817Z,992.01
2022-11-24T11:59:00.824Z,992.06
2022-11-24T12:00:00.791Z,992.04
2022-11-24T12:01:00.785Z,991.80
2022-11-24T12:02:00.766Z,991.78
2022-11-24T12:03:00.929Z,991.75
2022-11-24T12:04:00.964Z,991.77
2022-11-24T12:05:00.727Z,991.78
2022-11-24T12:06:00.742Z,991.84
2022-11-24T12:07:00.705Z,991.85
2022-11-24T12:08:06.416Z,991.89
2022-11-24T12:09:19.097Z,991.94
2022-11-24T12:10:02.661Z,991.98
2022-11-24T12:11:00.651Z,991.87
2022-11-24T12:12:00.634Z,991.91
2022-11-24T12:13:00.625Z,991.87
2022-11-24T12:14:00.610Z,991.86
2022-11-24T12:15:03.457Z,991.90
2022-11-24T12:16:00.669Z,991.99
2022-11-24T12:17:00.573Z,991.94
2022-11-24T12:18:00.557Z,992.14
2022-11-24T12:19:00.547Z,991.92
2022-11-24T12:20:00.533Z,991.91
2022-11-24T12:21:00.519Z,992.06
2022-11-24T12:22:00.532Z,992.09
2022-11-24T12:23:00.494Z,992.00
2022-11-24T12:24:00.484Z,991.99
2022-11-24T12:25:00.591Z,991.70
2022-11-24T12:26:00.455Z,991.80
2022-11-24T12:28:00.430Z,991.83
2022-11-24T12:29:00.423Z,991.84
2022-11-24T12:30:00.406Z,992.00
2022-11-24T12:32:00.378Z,991.94
2022-11-24T12:33:00.394Z,991.99
2022-11-24T12:34:01.485Z,992.00
2022-11-24T12:35:00.343Z,991.98
2022-11-24T12:36:00.328Z,992.01
2022-11-24T12:37:00.323Z,991.99
2022-11-24T12:38:00.326Z,992.03
2022-11-24T12:39:00.288Z,991.72
2022-11-24T12:40:00.278Z,991.79
2022-11-24T12:41:33.809Z,991.95
2022-11-24T12:42:02.255Z,992.01
2022-11-24T12:43:00.243Z,991.92
2022-11-24T12:44:00.227Z,992.01
2022-11-24T12:45:00.230Z,991.92
2022-11-24T12:46:00.226Z,991.73
2022-11-24T12:47:00.366Z,991.78
2022-11-24T12:48:00.174Z,991.84
2022-11-24T12:49:00.162Z,991.92
2022-11-24T12:50:00.182Z,991.96